Time;durP1;ratioP1;P1;durP2;ratioP2;P2;SDS_P1;SDS_P2;PMS_P1;PMS_P2;Temp;Humidity;BMP_temperature;BMP_pressure;BME280_temperature;BME280_humidity;BME280_pressure;Samples;Min_cycle;Max_cycle;Signal;HPM_P1;HPM_P2
2022/07/27 00:01:39;;;;;;;4.90;1.70;;;;;;;;;;5076571;28;20048;-75
2022/07/27 00:04:05;;;;;;;6.75;2.30;;;;;;;;;;5076080;28;20036;-74
2022/07/27 00:06:31;;;;;;;3.30;1.65;;;;;;;;;;5062187;28;20556;-75
2022/07/27 00:08:57;;;;;;;4.95;1.90;;;;;;;;;;5076419;28;20484;-74
2022/07/27 00:11:23;;;;;;;4.57;1.60;;;;;;;;;;5059858;28;20395;-74
2022/07/27 00:13:49;;;;;;;4.82;1.42;;;;;;;;;;5094366;28;20059;-74
2022/07/27 00:16:15;;;;;;;4.72;1.70;;;;;;;;;;5075713;28;20042;-74
2022/07/27 00:18:41;;;;;;;4.72;1.58;;;;;;;;;;5070355;28;20040;-74
2022/07/27 00:21:08;;;;;;;3.88;1.52;;;;;;;;;;5077407;28;20040;-75
2022/07/27 00:23:34;;;;;;;3.85;1.85;;;;;;;;;;5075689;28;20052;-75
2022/07/27 00:26:00;;;;;;;5.28;1.40;;;;;;;;;;5059367;28;20058;-75
2022/07/27 00:28:26;;;;;;;4.38;1.50;;;;;;;;;;5072921;28;20484;-75
2022/07/27 00:30:52;;;;;;;4.55;1.50;;;;;;;;;;5075520;28;20365;-75
2022/07/27 00:33:18;;;;;;;2.60;1.30;;;;;;;;;;5059348;28;20508;-75
2022/07/27 00:35:44;;;;;;;4.10;1.70;;;;;;;;;;5075416;28;20039;-75
2022/07/27 00:38:10;;;;;;;6.13;1.67;;;;;;;;;;5059184;28;20365;-75
2022/07/27 00:40:36;;;;;;;5.07;1.58;;;;;;;;;;5073362;28;20090;-76
2022/07/27 00:43:02;;;;;;;2.75;1.50;;;;;;;;;;5095755;28;20031;-76
2022/07/27 00:45:28;;;;;;;6.45;1.70;;;;;;;;;;5065342;28;20119;-75
2022/07/27 00:47:55;;;;;;;3.97;1.60;;;;;;;;;;5056509;28;20411;-75
2022/07/27 00:50:21;;;;;;;4.43;1.70;;;;;;;;;;5056225;28;20050;-76
2022/07/27 00:52:48;;;;;;;6.18;1.75;;;;;;;;;;5075619;28;20488;-75
2022/07/27 00:55:14;;;;;;;4.68;1.60;;;;;;;;;;5074925;28;20108;-75
2022/07/27 00:57:41;;;;;;;5.57;1.75;;;;;;;;;;5059015;28;20508;-75
2022/07/27 01:00:07;;;;;;;4.35;1.58;;;;;;;;;;5074764;28;20117;-75
2022/07/27 01:02:33;;;;;;;5.47;1.95;;;;;;;;;;5074644;28;20036;-75
2022/07/27 01:04:59;;;;;;;2.03;1.25;;;;;;;;;;5056002;28;20150;-74
2022/07/27 01:07:25;;;;;;;3.40;1.45;;;;;;;;;;5063692;28;20571;-74
2022/07/27 01:09:57;;;;;;;4.97;1.60;;;;;;;;;;5074757;28;20044;-74
2022/07/27 01:12:25;;;;;;;4.45;1.70;;;;;;;;;;5082005;28;20568;-74
2022/07/27 01:14:52;;;;;;;3.67;1.60;;;;;;;;;;5081278;28;20381;-74
2022/07/27 01:17:18;;;;;;;4.45;1.58;;;;;;;;;;5057663;28;20039;-74
2022/07/27 01:19:44;;;;;;;5.57;1.98;;;;;;;;;;5074657;28;20028;-74
2022/07/27 01:22:11;;;;;;;3.50;1.58;;;;;;;;;;5058396;28;20523;-74
2022/07/27 01:24:37;;;;;;;5.45;1.60;;;;;;;;;;5074961;28;20167;-74
2022/07/27 01:27:04;;;;;;;3.88;1.77;;;;;;;;;;5076268;28;20040;-74
2022/07/27 01:29:30;;;;;;;4.15;1.77;;;;;;;;;;5086577;28;20133;-74
2022/07/27 01:31:56;;;;;;;3.42;1.80;;;;;;;;;;5091279;28;20033;-74
2022/07/27 01:34:23;;;;;;;3.55;1.90;;;;;;;;;;5065684;28;20035;-74
2022/07/27 01:36:49;;;;;;;4.82;1.80;;;;;;;;;;5068831;28;20038;-74
2022/07/27 01:39:16;;;;;;;3.35;1.58;;;;;;;;;;5057598;28;20531;-75
2022/07/27 01:41:42;;;;;;;4.93;1.83;;;;;;;;;;5061889;28;20040;-75
2022/07/27 01:44:08;;;;;;;4.90;1.83;;;;;;;;;;5074629;28;20040;-75
2022/07/27 01:46:35;;;;;;;3.80;1.48;;;;;;;;;;5074150;28;20044;-74
2022/07/27 01:49:01;;;;;;;5.22;1.70;;;;;;;;;;5074116;28;20043;-74
2022/07/27 01:51:27;;;;;;;3.95;1.50;;;;;;;;;;5073928;28;20051;-75
2022/07/27 01:53:53;;;;;;;5.63;1.83;;;;;;;;;;5074302;28;20553;-74
2022/07/27 01:56:19;;;;;;;6.05;2.00;;;;;;;;;;5073956;28;20043;-74
2022/07/27 01:58:45;;;;;;;4.05;1.88;;;;;;;;;;5074032;28;20165;-74
2022/07/27 02:01:11;;;;;;;6.13;1.90;;;;;;;;;;5073611;28;20043;-74
2022/07/27 02:03:38;;;;;;;3.78;1.80;;;;;;;;;;5080155;28;20119;-74
2022/07/27 02:06:04;;;;;;;8.77;2.00;;;;;;;;;;5051686;28;20036;-74
2022/07/27 02:08:31;;;;;;;4.35;1.90;;;;;;;;;;5065388;28;20044;-74
2022/07/27 02:13:43;;;;;;;5.88;1.63;;;;;;;;;;5073991;28;20044;-75
2022/07/27 02:16:09;;;;;;;2.95;1.55;;;;;;;;;;5074098;28;20473;-74
2022/07/27 02:18:35;;;;;;;3.88;1.45;;;;;;;;;;5073597;28;20481;-74
2022/07/27 02:21:01;;;;;;;5.75;1.73;;;;;;;;;;5074423;28;20755;-75
2022/07/27 02:23:27;;;;;;;3.67;1.60;;;;;;;;;;5056567;28;20052;-74
2022/07/27 02:25:53;;;;;;;7.63;2.45;;;;;;;;;;5054824;28;20079;-74
2022/07/27 02:28:20;;;;;;;4.03;1.70;;;;;;;;;;5073646;28;20098;-74
2022/07/27 02:30:46;;;;;;;4.40;1.70;;;;;;;;;;5057308;28;20074;-75
2022/07/27 02:33:12;;;;;;;4.78;1.83;;;;;;;;;;5073960;28;20085;-75
2022/07/27 02:35:38;;;;;;;5.70;1.90;;;;;;;;;;5073360;28;20340;-74
2022/07/27 02:38:04;;;;;;;3.30;2.13;;;;;;;;;;5056894;28;20109;-74
2022/07/27 02:40:30;;;;;;;9.20;2.20;;;;;;;;;;5057004;28;20047;-74
2022/07/27 02:42:56;;;;;;;4.72;2.05;;;;;;;;;;5057229;28;20051;-74
2022/07/27 02:45:22;;;;;;;5.50;2.10;;;;;;;;;;5056943;28;20048;-75
2022/07/27 02:47:48;;;;;;;6.18;1.85;;;;;;;;;;5073784;28;20066;-75
2022/07/27 02:50:14;;;;;;;5.07;1.90;;;;;;;;;;5056478;28;20127;-75
2022/07/27 02:52:41;;;;;;;4.78;2.10;;;;;;;;;;5074946;28;20052;-75
2022/07/27 02:55:07;;;;;;;4.38;1.98;;;;;;;;;;5077202;28;20040;-75
2022/07/27 02:57:34;;;;;;;4.32;1.98;;;;;;;;;;5060336;28;20093;-75
2022/07/27 03:00:00;;;;;;;5.15;1.70;;;;;;;;;;5077409;28;20032;-75
2022/07/27 03:02:27;;;;;;;5.53;1.70;;;;;;;;;;5076870;28;20048;-74
2022/07/27 03:04:53;;;;;;;2.75;1.77;;;;;;;;;;5077677;28;20070;-75
2022/07/27 03:07:19;;;;;;;4.55;1.60;;;;;;;;;;5076828;28;20127;-75
2022/07/27 03:09:45;;;;;;;5.10;1.83;;;;;;;;;;5077106;28;20089;-75
2022/07/27 03:12:11;;;;;;;5.18;2.08;;;;;;;;;;5077098;28;20427;-75
2022/07/27 03:14:37;;;;;;;6.68;1.77;;;;;;;;;;5040381;28;20083;-75
2022/07/27 03:17:03;;;;;;;5.93;2.00;;;;;;;;;;5071861;28;20044;-75
2022/07/27 03:19:29;;;;;;;9.70;2.15;;;;;;;;;;5060104;28;20055;-75
2022/07/27 03:21:55;;;;;;;6.25;2.00;;;;;;;;;;5076578;28;20086;-75
2022/07/27 03:24:21;;;;;;;5.03;1.92;;;;;;;;;;5076920;28;20040;-75
2022/07/27 03:26:47;;;;;;;4.70;1.88;;;;;;;;;;5043432;28;20044;-74
2022/07/27 03:29:13;;;;;;;5.78;1.90;;;;;;;;;;5079836;28;20177;-75
2022/07/27 03:31:39;;;;;;;7.75;2.15;;;;;;;;;;5076686;28;20051;-75
2022/07/27 03:34:06;;;;;;;5.75;1.75;;;;;;;;;;5059770;28;20036;-75
2022/07/27 03:36:32;;;;;;;5.03;1.90;;;;;;;;;;5060224;28;20081;-75
2022/07/27 03:38:58;;;;;;;5.28;1.98;;;;;;;;;;5059851;28;20044;-75
2022/07/27 03:41:24;;;;;;;7.65;2.38;;;;;;;;;;5059926;28;20046;-75
2022/07/27 03:43:50;;;;;;;8.45;1.65;;;;;;;;;;5076055;28;20043;-75
2022/07/27 03:46:16;;;;;;;4.90;1.58;;;;;;;;;;5076926;28;20044;-75
2022/07/27 03:48:42;;;;;;;5.57;2.20;;;;;;;;;;5075755;28;20040;-75
2022/07/27 03:51:08;;;;;;;5.18;1.80;;;;;;;;;;5077026;28;20531;-75
2022/07/27 03:53:34;;;;;;;4.75;1.98;;;;;;;;;;5059212;28;20040;-74
2022/07/27 03:56:00;;;;;;;3.83;2.22;;;;;;;;;;5076607;28;20093;-74
2022/07/27 03:58:27;;;;;;;5.40;1.90;;;;;;;;;;5088908;28;20484;-74
2022/07/27 04:00:53;;;;;;;6.30;2.22;;;;;;;;;;5080923;28;20032;-74
2022/07/27 04:03:19;;;;;;;4.97;1.77;;;;;;;;;;5080365;28;20569;-74
2022/07/27 04:05:45;;;;;;;2.67;1.50;;;;;;;;;;5057735;28;20400;-74
2022/07/27 04:08:11;;;;;;;3.35;1.70;;;;;;;;;;5093403;28;20043;-74
2022/07/27 04:10:37;;;;;;;5.40;1.42;;;;;;;;;;5053298;28;20051;-74
2022/07/27 04:13:03;;;;;;;4.07;1.95;;;;;;;;;;5062486;28;20071;-74
2022/07/27 04:15:29;;;;;;;3.38;1.58;;;;;;;;;;5099092;28;20237;-74
2022/07/27 04:17:55;;;;;;;4.65;2.05;;;;;;;;;;5109643;28;20036;-74
2022/07/27 04:20:21;;;;;;;5.75;1.83;;;;;;;;;;5072264;28;20127;-74
2022/07/27 04:22:48;;;;;;;6.28;2.00;;;;;;;;;;5053423;28;20410;-74
2022/07/27 04:25:14;;;;;;;4.32;1.95;;;;;;;;;;5071831;28;20130;-74
2022/07/27 04:27:40;;;;;;;6.95;1.90;;;;;;;;;;5086967;28;20166;-74
2022/07/27 04:30:07;;;;;;;3.90;1.92;;;;;;;;;;5076480;28;20044;-74
2022/07/27 04:32:33;;;;;;;3.22;1.63;;;;;;;;;;5070280;28;20128;-74
2022/07/27 04:34:59;;;;;;;3.97;1.70;;;;;;;;;;5085526;28;20035;-74
2022/07/27 04:37:25;;;;;;;4.90;1.83;;;;;;;;;;5080337;28;20119;-74
2022/07/27 04:39:56;;;;;;;5.35;1.98;;;;;;;;;;5086749;28;20044;-74
2022/07/27 04:42:22;;;;;;;4.22;2.00;;;;;;;;;;5082293;28;20485;-75
2022/07/27 04:44:48;;;;;;;5.22;2.03;;;;;;;;;;5079806;28;20118;-75
2022/07/27 04:47:14;;;;;;;6.40;2.05;;;;;;;;;;5075704;28;20036;-75
2022/07/27 04:49:40;;;;;;;7.53;2.65;;;;;;;;;;5093237;28;20043;-75
2022/07/27 04:52:06;;;;;;;7.30;3.10;;;;;;;;;;5074314;28;20059;-74
2022/07/27 04:54:32;;;;;;;5.97;2.28;;;;;;;;;;5074911;28;20085;-74
2022/07/27 04:56:58;;;;;;;5.38;2.10;;;;;;;;;;5071672;28;20040;-75
2022/07/27 04:59:25;;;;;;;5.47;2.20;;;;;;;;;;5077911;28;20508;-76
2022/07/27 05:01:51;;;;;;;5.82;2.50;;;;;;;;;;5092151;28;20105;-75
2022/07/27 05:04:17;;;;;;;6.35;2.28;;;;;;;;;;5067489;28;20040;-75
2022/07/27 05:06:43;;;;;;;5.22;2.65;;;;;;;;;;5072147;28;20044;-75
2022/07/27 05:09:09;;;;;;;6.50;2.33;;;;;;;;;;5070358;28;20039;-76
2022/07/27 05:11:35;;;;;;;5.55;2.58;;;;;;;;;;5077767;28;20046;-74
2022/07/27 05:14:02;;;;;;;6.60;2.20;;;;;;;;;;5093965;28;20387;-74
2022/07/27 05:16:29;;;;;;;6.10;1.90;;;;;;;;;;5086402;28;20047;-75
2022/07/27 05:18:55;;;;;;;5.25;2.00;;;;;;;;;;5079690;28;20085;-74
2022/07/27 05:21:21;;;;;;;6.65;2.13;;;;;;;;;;5094997;28;20395;-74
2022/07/27 05:23:47;;;;;;;8.02;1.83;;;;;;;;;;5093620;28;20061;-74
2022/07/27 05:26:13;;;;;;;7.10;2.05;;;;;;;;;;5085879;28;20048;-74
2022/07/27 05:28:39;;;;;;;5.40;1.67;;;;;;;;;;5076809;28;20052;-74
2022/07/27 05:31:05;;;;;;;7.03;2.00;;;;;;;;;;5092488;28;20036;-74
2022/07/27 05:33:31;;;;;;;6.93;2.15;;;;;;;;;;5112899;28;20036;-74
2022/07/27 05:35:57;;;;;;;7.80;1.77;;;;;;;;;;5079415;28;20043;-75
2022/07/27 05:38:23;;;;;;;8.52;2.17;;;;;;;;;;5081489;28;20182;-75
2022/07/27 05:40:50;;;;;;;5.55;1.73;;;;;;;;;;5067723;28;20043;-75
2022/07/27 05:43:16;;;;;;;8.63;1.75;;;;;;;;;;5060507;28;20055;-75
2022/07/27 05:45:42;;;;;;;7.88;1.75;;;;;;;;;;5063906;28;20546;-75
2022/07/27 05:48:08;;;;;;;6.68;1.83;;;;;;;;;;5075500;28;20127;-75
2022/07/27 05:50:34;;;;;;;7.85;1.50;;;;;;;;;;5070154;28;20040;-75
2022/07/27 05:53:00;;;;;;;6.15;1.70;;;;;;;;;;5080942;28;20048;-74
2022/07/27 05:55:26;;;;;;;8.05;2.67;;;;;;;;;;5079177;28;20139;-75
2022/07/27 05:57:52;;;;;;;6.32;1.90;;;;;;;;;;5060181;28;20519;-75
2022/07/27 06:00:18;;;;;;;6.47;1.90;;;;;;;;;;5051282;28;20060;-75
2022/07/27 06:02:44;;;;;;;8.02;1.80;;;;;;;;;;5062167;28;20037;-75
2022/07/27 06:05:11;;;;;;;11.73;2.33;;;;;;;;;;5060422;28;20397;-75
2022/07/27 06:10:21;;;;;;;5.63;2.15;;;;;;;;;;5079371;28;20500;-75
2022/07/27 06:12:48;;;;;;;5.85;1.90;;;;;;;;;;5095874;28;20550;-75
2022/07/27 06:15:16;;;;;;;11.43;2.38;;;;;;;;;;5072370;28;20037;-75
2022/07/27 06:17:45;;;;;;;5.50;1.92;;;;;;;;;;5080391;28;20060;-75
2022/07/27 06:20:12;;;;;;;7.57;1.98;;;;;;;;;;5084710;28;20503;-75
2022/07/27 06:22:48;;;;;;;5.47;2.03;;;;;;;;;;5053396;28;20052;-76
2022/07/27 06:25:17;;;;;;;7.43;1.80;;;;;;;;;;5066733;28;20105;-76
2022/07/27 06:27:44;;;;;;;7.30;1.60;;;;;;;;;;5081204;28;20074;-76
2022/07/27 06:30:12;;;;;;;7.72;1.85;;;;;;;;;;5090857;28;20545;-76
2022/07/27 06:32:38;;;;;;;5.88;1.98;;;;;;;;;;5092897;28;20043;-76
2022/07/27 06:35:04;;;;;;;6.78;1.90;;;;;;;;;;5094548;28;20130;-76
2022/07/27 06:37:31;;;;;;;5.78;1.70;;;;;;;;;;5090625;28;20047;-76
2022/07/27 06:39:59;;;;;;;5.55;1.38;;;;;;;;;;5088536;28;20036;-76
2022/07/27 06:42:26;;;;;;;6.78;1.42;;;;;;;;;;5077922;28;20396;-77
2022/07/27 06:44:52;;;;;;;4.80;1.23;;;;;;;;;;5077509;28;20119;-77
2022/07/27 06:47:18;;;;;;;3.85;1.13;;;;;;;;;;5077435;28;20051;-77
2022/07/27 06:49:44;;;;;;;6.40;1.50;;;;;;;;;;5087430;28;20064;-78
2022/07/27 06:52:10;;;;;;;3.83;1.15;;;;;;;;;;5063525;28;20048;-78
2022/07/27 06:54:36;;;;;;;3.53;1.10;;;;;;;;;;5085310;28;20040;-78
2022/07/27 06:57:02;;;;;;;4.25;1.17;;;;;;;;;;5060089;28;20043;-77
2022/07/27 06:59:30;;;;;;;5.32;1.45;;;;;;;;;;5060336;28;20043;-78
2022/07/27 07:01:56;;;;;;;4.80;0.85;;;;;;;;;;5076372;28;20527;-77
2022/07/27 07:04:22;;;;;;;4.70;1.15;;;;;;;;;;5077482;28;20056;-77
2022/07/27 07:06:49;;;;;;;5.38;1.30;;;;;;;;;;5060395;28;20131;-78
2022/07/27 07:09:15;;;;;;;3.72;0.98;;;;;;;;;;5060758;28;20536;-78
2022/07/27 07:11:41;;;;;;;5.55;1.25;;;;;;;;;;5063847;28;20054;-77
2022/07/27 07:14:09;;;;;;;4.57;1.08;;;;;;;;;;5076601;28;20043;-78
2022/07/27 07:16:35;;;;;;;3.78;0.90;;;;;;;;;;5076959;28;20044;-78
2022/07/27 07:19:01;;;;;;;3.28;1.00;;;;;;;;;;5076493;28;20080;-77
2022/07/27 07:21:27;;;;;;;3.40;0.80;;;;;;;;;;5077013;28;20476;-77
2022/07/27 07:23:54;;;;;;;3.15;0.90;;;;;;;;;;5060396;28;20051;-77
2022/07/27 07:26:20;;;;;;;3.40;0.90;;;;;;;;;;5077088;28;20062;-78
2022/07/27 07:28:46;;;;;;;5.90;0.90;;;;;;;;;;5073703;28;20040;-77
2022/07/27 07:31:12;;;;;;;4.47;0.80;;;;;;;;;;5077293;28;20044;-77
2022/07/27 07:33:38;;;;;;;5.78;0.90;;;;;;;;;;5072659;28;20094;-78
2022/07/27 07:36:04;;;;;;;3.85;1.10;;;;;;;;;;5071444;28;20047;-77
2022/07/27 07:38:30;;;;;;;5.43;1.00;;;;;;;;;;5073719;28;20457;-76
2022/07/27 07:40:56;;;;;;;4.47;1.23;;;;;;;;;;5079518;28;20416;-77
2022/07/27 07:43:22;;;;;;;4.68;1.42;;;;;;;;;;5075932;28;20036;-77
2022/07/27 07:45:48;;;;;;;3.42;0.90;;;;;;;;;;5076886;28;20050;-77
2022/07/27 07:48:14;;;;;;;5.88;1.00;;;;;;;;;;5075724;28;20047;-77
2022/07/27 07:50:40;;;;;;;3.67;1.02;;;;;;;;;;5059443;28;20044;-77
2022/07/27 07:53:06;;;;;;;4.03;1.00;;;;;;;;;;5071504;28;20036;-76
2022/07/27 07:55:33;;;;;;;3.40;0.80;;;;;;;;;;5072672;28;20085;-75
2022/07/27 07:58:00;;;;;;;5.82;0.80;;;;;;;;;;5070989;28;20037;-76
2022/07/27 08:00:26;;;;;;;2.75;0.80;;;;;;;;;;5052468;28;20031;-76
2022/07/27 08:02:53;;;;;;;5.03;0.82;;;;;;;;;;5073170;28;20064;-76
2022/07/27 08:05:20;;;;;;;3.35;0.88;;;;;;;;;;5077425;28;20055;-76
2022/07/27 08:07:46;;;;;;;2.97;0.90;;;;;;;;;;5071730;28;20036;-78
2022/07/27 08:10:13;;;;;;;3.92;0.90;;;;;;;;;;5083720;28;20101;-76
2022/07/27 08:12:41;;;;;;;3.78;0.93;;;;;;;;;;5073431;28;20551;-77
2022/07/27 08:15:07;;;;;;;3.33;1.15;;;;;;;;;;5062764;28;20044;-81
2022/07/27 08:17:34;;;;;;;3.22;0.85;;;;;;;;;;5081889;28;20031;-76
2022/07/27 08:20:00;;;;;;;2.38;0.88;;;;;;;;;;5083789;28;20101;-78
2022/07/27 08:22:26;;;;;;;2.80;0.93;;;;;;;;;;5056570;28;20517;-79
2022/07/27 08:24:52;;;;;;;3.63;0.80;;;;;;;;;;5049829;28;20059;-81
2022/07/27 08:27:19;;;;;;;5.03;1.30;;;;;;;;;;5032692;28;20504;-78
2022/07/27 08:29:45;;;;;;;3.58;0.80;;;;;;;;;;5049460;28;20098;-75
2022/07/27 08:32:11;;;;;;;4.25;0.88;;;;;;;;;;5030025;28;20044;-78
2022/07/27 08:34:37;;;;;;;2.95;1.00;;;;;;;;;;5057692;28;20037;-76
2022/07/27 08:37:03;;;;;;;3.08;1.02;;;;;;;;;;5048383;28;20171;-76
2022/07/27 08:39:29;;;;;;;3.20;0.90;;;;;;;;;;5038332;28;20504;-76
2022/07/27 08:41:59;;;;;;;3.90;0.88;;;;;;;;;;5063676;28;20044;-76
2022/07/27 08:44:28;;;;;;;4.30;0.90;;;;;;;;;;5041655;28;20123;-78
2022/07/27 08:46:55;;;;;;;3.47;0.90;;;;;;;;;;5054621;28;20119;-77
2022/07/27 08:49:22;;;;;;;1.83;0.70;;;;;;;;;;5041524;28;20169;-76
2022/07/27 08:51:48;;;;;;;3.80;0.93;;;;;;;;;;5066325;28;20079;-75
2022/07/27 08:54:15;;;;;;;2.67;0.80;;;;;;;;;;5066376;28;20451;-74
2022/07/27 08:56:41;;;;;;;3.65;1.10;;;;;;;;;;5054678;28;20048;-76
2022/07/27 08:59:07;;;;;;;3.08;0.80;;;;;;;;;;5036879;28;20040;-73
2022/07/27 09:01:36;;;;;;;3.60;1.05;;;;;;;;;;5055004;28;20043;-74
2022/07/27 09:04:02;;;;;;;5.60;0.80;;;;;;;;;;5038054;28;20036;-75
2022/07/27 09:06:49;;;;;;;2.60;0.85;;;;;;;;;;5034996;28;20044;-74
2022/07/27 09:09:16;;;;;;;3.17;1.00;;;;;;;;;;5036727;28;20044;-73
2022/07/27 09:11:42;;;;;;;4.13;0.90;;;;;;;;;;5051280;28;20032;-73
2022/07/27 09:14:11;;;;;;;3.60;0.90;;;;;;;;;;5035351;28;20551;-75
2022/07/27 09:16:37;;;;;;;3.78;0.80;;;;;;;;;;5043117;28;20047;-73
2022/07/27 09:19:08;;;;;;;2.42;0.85;;;;;;;;;;5047363;28;20037;-73
2022/07/27 09:21:35;;;;;;;3.47;0.95;;;;;;;;;;5052711;28;20044;-72
2022/07/27 09:24:21;;;;;;;2.63;0.80;;;;;;;;;;5074084;28;20531;-72
2022/07/27 09:26:48;;;;;;;3.35;1.05;;;;;;;;;;5055950;28;20109;-74
2022/07/27 09:29:15;;;;;;;3.20;0.85;;;;;;;;;;5068821;28;20404;-73
2022/07/27 09:31:41;;;;;;;2.83;0.90;;;;;;;;;;5060062;28;20075;-73
2022/07/27 09:34:08;;;;;;;2.72;0.90;;;;;;;;;;5057388;28;20055;-73
2022/07/27 09:36:48;;;;;;;3.40;0.80;;;;;;;;;;5069123;28;20045;-72
2022/07/27 09:39:17;;;;;;;4.13;0.90;;;;;;;;;;5073379;28;20036;-72
2022/07/27 09:41:44;;;;;;;2.88;1.02;;;;;;;;;;5081211;28;20028;-72
2022/07/27 09:44:11;;;;;;;3.88;1.00;;;;;;;;;;5071730;28;20028;-74
2022/07/27 09:46:38;;;;;;;3.83;0.90;;;;;;;;;;5067030;28;20047;-72
2022/07/27 09:49:05;;;;;;;5.90;1.10;;;;;;;;;;5078726;28;20105;-72
2022/07/27 09:51:32;;;;;;;3.38;1.00;;;;;;;;;;5065533;28;20152;-72
2022/07/27 09:53:59;;;;;;;5.32;1.15;;;;;;;;;;5077247;28;20036;-72
2022/07/27 09:56:32;;;;;;;3.53;1.10;;;;;;;;;;5102031;28;20295;-72
2022/07/27 09:59:00;;;;;;;2.50;0.77;;;;;;;;;;5051077;28;20092;-75
2022/07/27 10:01:29;;;;;;;4.53;0.90;;;;;;;;;;5081789;28;20043;-75
2022/07/27 10:03:57;;;;;;;2.95;1.00;;;;;;;;;;5060586;28;20501;-75
2022/07/27 10:06:23;;;;;;;4.50;0.90;;;;;;;;;;5088186;28;20102;-73
2022/07/27 10:08:50;;;;;;;3.67;0.90;;;;;;;;;;5054324;28;20052;-75
2022/07/27 10:11:17;;;;;;;5.07;1.00;;;;;;;;;;5056777;28;20040;-73
2022/07/27 10:13:43;;;;;;;5.03;1.13;;;;;;;;;;5070525;28;20167;-77
2022/07/27 10:16:18;;;;;;;5.28;0.95;;;;;;;;;;5071716;28;20050;-73
2022/07/27 10:18:44;;;;;;;;;;;;;;;;;;5068263;28;20393;-73
2022/07/27 10:21:11;;;;;;;3.85;0.93;;;;;;;;;;5084952;28;19938;-76
2022/07/27 10:23:37;;;;;;;4.45;1.10;;;;;;;;;;5075296;28;20055;-75
2022/07/27 10:26:11;;;;;;;3.90;1.00;;;;;;;;;;5057341;28;20092;-73
2022/07/27 10:28:48;;;;;;;4.35;0.90;;;;;;;;;;5064979;28;20040;-78
2022/07/27 10:31:16;;;;;;;2.80;0.80;;;;;;;;;;5088680;28;20039;-73
2022/07/27 10:33:46;;;;;;;3.40;0.98;;;;;;;;;;5075327;28;20036;-77
2022/07/27 10:36:18;;;;;;;4.57;0.90;;;;;;;;;;5089647;28;20036;-75
2022/07/27 10:38:48;;;;;;;3.50;1.20;;;;;;;;;;5078067;28;20040;-73
2022/07/27 10:41:24;;;;;;;3.13;0.70;;;;;;;;;;5061873;28;20044;-73
2022/07/27 10:43:50;;;;;;;;;;;;;;;;;;5074549;28;20489;-68
2022/07/27 10:46:20;;;;;;;3.10;0.90;;;;;;;;;;5092390;28;20011;-67
2022/07/27 10:48:47;;;;;;;4.13;1.05;;;;;;;;;;5091911;28;20044;-68
2022/07/27 10:51:15;;;;;;;3.05;0.80;;;;;;;;;;5074260;28;20067;-69
2022/07/27 10:53:41;;;;;;;3.22;0.80;;;;;;;;;;5072698;28;20048;-68
2022/07/27 10:56:09;;;;;;;4.53;0.95;;;;;;;;;;5089082;28;20039;-68
2022/07/27 10:58:35;;;;;;;3.92;0.80;;;;;;;;;;5073379;28;20042;-67
2022/07/27 11:01:02;;;;;;;5.25;1.50;;;;;;;;;;5091658;28;20032;-68
2022/07/27 11:03:32;;;;;;;3.47;0.90;;;;;;;;;;5091251;28;20480;-67
2022/07/27 11:05:58;;;;;;;3.88;1.00;;;;;;;;;;5091691;28;20042;-69
2022/07/27 11:08:35;;;;;;;4.88;1.00;;;;;;;;;;5091718;28;20052;-70
2022/07/27 11:11:02;;;;;;;5.18;0.80;;;;;;;;;;5091229;28;20064;-68
2022/07/27 11:13:29;;;;;;;2.83;1.02;;;;;;;;;;5073526;28;20080;-69
2022/07/27 11:15:56;;;;;;;3.20;1.00;;;;;;;;;;5094500;28;20040;-68
2022/07/27 11:18:26;;;;;;;7.03;1.08;;;;;;;;;;5099493;28;20036;-68
2022/07/27 11:20:52;;;;;;;5.80;1.00;;;;;;;;;;5097577;28;20433;-67
2022/07/27 11:23:22;;;;;;;1.98;0.80;;;;;;;;;;5075830;28;20052;-67
2022/07/27 11:26:01;;;;;;;4.22;0.90;;;;;;;;;;5103000;28;20036;-67
2022/07/27 11:28:30;;;;;;;3.72;1.13;;;;;;;;;;5089920;28;20044;-69
2022/07/27 11:30:57;;;;;;;3.42;1.00;;;;;;;;;;5095143;28;20048;-69
2022/07/27 11:33:23;;;;;;;3.40;1.00;;;;;;;;;;5076495;28;20047;-69
2022/07/27 11:36:00;;;;;;;3.95;1.13;;;;;;;;;;5094506;28;20105;-69
2022/07/27 11:38:26;;;;;;;3.72;1.20;;;;;;;;;;5094628;28;20036;-67
2022/07/27 11:40:52;;;;;;;3.38;1.00;;;;;;;;;;5083088;28;20033;-68
2022/07/27 11:43:35;;;;;;;6.32;1.00;;;;;;;;;;5092080;28;20472;-68
2022/07/27 11:46:13;;;;;;;6.15;0.93;;;;;;;;;;5094935;28;20047;-68
2022/07/27 11:48:49;;;;;;;2.83;1.00;;;;;;;;;;5064321;28;20143;-69
2022/07/27 11:51:16;;;;;;;2.53;0.85;;;;;;;;;;5075296;28;20075;-67
2022/07/27 11:53:42;;;;;;;4.35;0.90;;;;;;;;;;5068826;28;20497;-68
2022/07/27 11:56:08;;;;;;;4.60;0.98;;;;;;;;;;5073080;28;20078;-68
2022/07/27 11:58:54;;;;;;;3.25;0.93;;;;;;;;;;5069910;28;20032;-69
2022/07/27 12:01:32;;;;;;;5.13;0.88;;;;;;;;;;5058768;28;20041;-69
2022/07/27 12:04:05;;;;;;;3.15;0.90;;;;;;;;;;5061404;28;20041;-68
2022/07/27 12:06:33;;;;;;;4.20;0.90;;;;;;;;;;5073038;28;20094;-67
2022/07/27 12:09:00;;;;;;;3.25;0.80;;;;;;;;;;5068212;28;20036;-68
2022/07/27 12:11:30;;;;;;;2.53;0.80;;;;;;;;;;5072728;28;20045;-67
2022/07/27 12:13:57;;;;;;;2.50;0.90;;;;;;;;;;5060789;28;20419;-68
2022/07/27 12:16:23;;;;;;;2.85;0.80;;;;;;;;;;5065815;28;20044;-68
2022/07/27 12:18:49;;;;;;;2.92;0.90;;;;;;;;;;5067495;28;20048;-69
2022/07/27 12:21:19;;;;;;;2.45;0.70;;;;;;;;;;5080384;28;20040;-69
2022/07/27 12:23:49;;;;;;;3.83;0.70;;;;;;;;;;5079250;28;20057;-69
2022/07/27 12:26:24;;;;;;;2.80;0.80;;;;;;;;;;5079413;28;20051;-69
2022/07/27 12:29:25;;;;;;;2.17;0.70;;;;;;;;;;5084553;28;20161;-70
2022/07/27 12:31:53;;;;;;;2.42;0.73;;;;;;;;;;5021577;28;20057;-70
2022/07/27 12:34:19;;;;;;;2.50;0.70;;;;;;;;;;5062180;28;20522;-69
2022/07/27 12:36:45;;;;;;;4.00;0.90;;;;;;;;;;5086562;28;20044;-69
2022/07/27 12:39:27;;;;;;;4.55;0.85;;;;;;;;;;5098136;28;20074;-68
2022/07/27 12:42:07;;;;;;;2.30;0.60;;;;;;;;;;5061605;28;20032;-69
2022/07/27 12:44:38;;;;;;;2.40;0.60;;;;;;;;;;5067518;28;20515;-67
2022/07/27 12:49:49;;;;;;;;;;;;;;;;;;5096449;28;20497;-68
2022/07/27 12:52:15;;;;;;;3.47;0.60;;;;;;;;;;5087920;28;19922;-68
2022/07/27 12:54:42;;;;;;;2.80;1.00;;;;;;;;;;5099703;28;20515;-69
2022/07/27 12:57:08;;;;;;;1.98;0.57;;;;;;;;;;5104466;28;20038;-67
2022/07/27 12:59:34;;;;;;;2.35;0.60;;;;;;;;;;5093926;28;20434;-67
2022/07/27 13:02:00;;;;;;;3.33;0.57;;;;;;;;;;5096654;28;20063;-67
2022/07/27 13:04:26;;;;;;;2.55;0.70;;;;;;;;;;5083302;28;20047;-67
2022/07/27 13:06:52;;;;;;;2.75;0.60;;;;;;;;;;5092269;28;20036;-68
2022/07/27 13:09:18;;;;;;;4.15;0.80;;;;;;;;;;5107524;28;20042;-68
2022/07/27 13:11:44;;;;;;;2.65;0.80;;;;;;;;;;5074344;28;20074;-67
2022/07/27 13:14:10;;;;;;;3.88;0.90;;;;;;;;;;5101157;28;20039;-68
2022/07/27 13:16:36;;;;;;;4.15;0.90;;;;;;;;;;5065011;28;20087;-67
2022/07/27 13:19:02;;;;;;;3.83;1.00;;;;;;;;;;5064241;28;20383;-66
2022/07/27 13:21:28;;;;;;;4.15;0.80;;;;;;;;;;5075610;28;20086;-67
2022/07/27 13:23:55;;;;;;;3.30;0.80;;;;;;;;;;5077921;28;20113;-66
2022/07/27 13:26:21;;;;;;;3.85;0.73;;;;;;;;;;5069711;28;20097;-66
2022/07/27 13:28:48;;;;;;;3.35;0.90;;;;;;;;;;5074183;28;20036;-68
2022/07/27 13:31:14;;;;;;;2.63;0.85;;;;;;;;;;5068683;28;20040;-69
2022/07/27 13:33:40;;;;;;;3.95;1.00;;;;;;;;;;5077153;28;20470;-67
2022/07/27 13:36:08;;;;;;;3.63;0.77;;;;;;;;;;5059313;28;20039;-66
2022/07/27 13:38:34;;;;;;;5.13;0.80;;;;;;;;;;5070376;28;20050;-67
2022/07/27 13:41:00;;;;;;;2.78;0.70;;;;;;;;;;5086456;28;20400;-66
2022/07/27 13:43:26;;;;;;;4.47;0.77;;;;;;;;;;5062066;28;20067;-71
2022/07/27 13:45:52;;;;;;;3.95;0.80;;;;;;;;;;5042946;28;20128;-76
2022/07/27 13:48:18;;;;;;;4.63;0.85;;;;;;;;;;5075275;28;20036;-72
2022/07/27 13:50:44;;;;;;;1.92;0.70;;;;;;;;;;5073608;28;20044;-69
2022/07/27 13:53:11;;;;;;;4.40;0.80;;;;;;;;;;5098049;28;20075;-76
2022/07/27 13:55:37;;;;;;;4.97;0.90;;;;;;;;;;5081875;28;20032;-72
2022/07/27 13:58:03;;;;;;;2.80;0.70;;;;;;;;;;5063818;28;20063;-71
2022/07/27 14:00:29;;;;;;;2.88;0.70;;;;;;;;;;5074922;28;20044;-72
2022/07/27 14:02:55;;;;;;;3.22;0.70;;;;;;;;;;5037731;28;20040;-71
2022/07/27 14:05:22;;;;;;;5.20;0.70;;;;;;;;;;5071446;28;20047;-73
2022/07/27 14:07:48;;;;;;;1.55;0.60;;;;;;;;;;5076520;28;20169;-71
2022/07/27 14:10:30;;;;;;;2.83;0.70;;;;;;;;;;5080849;28;20063;-73
2022/07/27 14:12:57;;;;;;;3.22;0.70;;;;;;;;;;5065932;28;20089;-70
2022/07/27 14:15:23;;;;;;;3.33;0.68;;;;;;;;;;5075266;28;20493;-71
2022/07/27 14:17:49;;;;;;;112.93;14.93;;;;;;;;;;5076473;28;20040;-72
2022/07/27 14:20:15;;;;;;;7.45;1.73;;;;;;;;;;5090671;28;20113;-74
2022/07/27 14:22:41;;;;;;;5.38;1.00;;;;;;;;;;5072951;28;20062;-75
2022/07/27 14:25:08;;;;;;;16.17;1.83;;;;;;;;;;5070557;28;20493;-75
2022/07/27 14:27:34;;;;;;;3.40;0.82;;;;;;;;;;5097921;28;20035;-76
2022/07/27 14:30:00;;;;;;;4.72;0.95;;;;;;;;;;5070912;28;20438;-74
2022/07/27 14:32:26;;;;;;;3.00;0.65;;;;;;;;;;5079835;28;20036;-74
2022/07/27 14:34:53;;;;;;;2.08;0.60;;;;;;;;;;5079762;28;20039;-73
2022/07/27 14:37:19;;;;;;;2.35;0.70;;;;;;;;;;5045878;28;20043;-74
2022/07/27 14:39:45;;;;;;;3.42;1.02;;;;;;;;;;5076989;28;20543;-75
2022/07/27 14:42:11;;;;;;;2.85;0.65;;;;;;;;;;5041159;28;20388;-73
2022/07/27 14:44:37;;;;;;;3.15;0.80;;;;;;;;;;5063140;28;20044;-75
2022/07/27 14:47:03;;;;;;;4.35;0.80;;;;;;;;;;5081488;28;20492;-75
2022/07/27 14:49:29;;;;;;;2.63;0.50;;;;;;;;;;5075209;28;20076;-76
2022/07/27 14:51:56;;;;;;;1.65;0.52;;;;;;;;;;5077314;28;20036;-74